Time;durP1;ratioP1;P1;durP2;ratioP2;P2;SDS_P1;SDS_P2;PMS_P1;PMS_P2;Temp;Humidity;BMP_temperature;BMP_pressure;BME280_temperature;BME280_humidity;BME280_pressure;Samples;Min_cycle;Max_cycle;Signal;HPM_P1;HPM_P2
2022/05/15 00:02:07;;;;;;;24.92;10.35;;;;;;;;;;4932634;29;20034;-74
2022/05/15 00:04:33;;;;;;;23.50;11.88;;;;;;;;;;4931030;29;20035;-73
2022/05/15 00:06:59;;;;;;;24.38;11.65;;;;;;;;;;4929632;29;20119;-74
2022/05/15 00:09:26;;;;;;;23.65;11.57;;;;;;;;;;4931884;29;20036;-73
2022/05/15 00:11:52;;;;;;;26.13;12.30;;;;;;;;;;4931812;29;20397;-74
2022/05/15 00:14:18;;;;;;;17.27;8.85;;;;;;;;;;4931994;29;20023;-73
2022/05/15 00:16:44;;;;;;;18.65;9.70;;;;;;;;;;4930894;29;20066;-73
2022/05/15 00:19:11;;;;;;;17.17;8.40;;;;;;;;;;4933412;29;20031;-73
2022/05/15 00:21:37;;;;;;;17.67;9.20;;;;;;;;;;4936597;29;20028;-73
2022/05/15 00:24:04;;;;;;;14.90;9.50;;;;;;;;;;4932782;29;20024;-73
2022/05/15 00:26:31;;;;;;;19.10;9.40;;;;;;;;;;4928459;29;20027;-74
2022/05/15 00:28:58;;;;;;;19.40;9.00;;;;;;;;;;4931158;29;20028;-73
2022/05/15 00:31:24;;;;;;;19.45;9.48;;;;;;;;;;4929015;29;20032;-72
2022/05/15 00:33:51;;;;;;;16.88;8.77;;;;;;;;;;4931259;29;20383;-74
2022/05/15 00:36:17;;;;;;;21.23;9.02;;;;;;;;;;4931038;29;20024;-73
2022/05/15 00:38:43;;;;;;;16.75;9.05;;;;;;;;;;4931385;29;20035;-73
2022/05/15 00:41:10;;;;;;;17.50;8.50;;;;;;;;;;4930123;29;20032;-74
2022/05/15 00:43:44;;;;;;;13.80;7.57;;;;;;;;;;4934432;29;20465;-73
2022/05/15 00:46:18;;;;;;;13.55;8.75;;;;;;;;;;4931421;29;20062;-74
2022/05/15 00:48:45;;;;;;;12.80;8.40;;;;;;;;;;4930052;29;20058;-73
2022/05/15 00:51:16;;;;;;;25.27;9.23;;;;;;;;;;4930538;29;20028;-73
2022/05/15 00:53:43;;;;;;;17.55;9.20;;;;;;;;;;4929490;29;20168;-75
2022/05/15 00:56:11;;;;;;;21.20;7.97;;;;;;;;;;4927920;29;20023;-73
2022/05/15 00:58:40;;;;;;;22.17;9.25;;;;;;;;;;4937336;29;20035;-74
2022/05/15 01:01:06;;;;;;;19.63;8.57;;;;;;;;;;4931228;29;20421;-74
2022/05/15 01:03:32;;;;;;;15.13;7.30;;;;;;;;;;4928694;29;20020;-74
2022/05/15 01:05:59;;;;;;;12.75;7.03;;;;;;;;;;4944693;28;20052;-73
2022/05/15 01:08:30;;;;;;;14.32;6.70;;;;;;;;;;4924617;29;20034;-73
2022/05/15 01:11:00;;;;;;;13.15;6.80;;;;;;;;;;4927498;29;20543;-73
2022/05/15 01:13:28;;;;;;;14.02;6.07;;;;;;;;;;4921500;29;20044;-74
2022/05/15 01:15:54;;;;;;;17.52;7.35;;;;;;;;;;4920188;29;20027;-74
2022/05/15 01:18:21;;;;;;;15.38;6.20;;;;;;;;;;4925410;29;20036;-74
2022/05/15 01:20:48;;;;;;;14.65;6.22;;;;;;;;;;4951343;28;20328;-73
2022/05/15 01:23:15;;;;;;;11.10;5.80;;;;;;;;;;4933493;29;20446;-75
2022/05/15 01:25:41;;;;;;;13.32;5.95;;;;;;;;;;4930329;29;20024;-73
2022/05/15 01:28:08;;;;;;;22.33;7.43;;;;;;;;;;4933472;29;20028;-74
2022/05/15 01:30:36;;;;;;;13.50;7.07;;;;;;;;;;4932738;29;20032;-74
2022/05/15 01:33:02;;;;;;;11.10;6.20;;;;;;;;;;4933692;29;20501;-74
2022/05/15 01:35:29;;;;;;;11.05;5.28;;;;;;;;;;4936206;29;20036;-76
2022/05/15 01:37:55;;;;;;;13.27;5.50;;;;;;;;;;4935490;29;20035;-74
2022/05/15 01:40:21;;;;;;;13.43;5.63;;;;;;;;;;4934821;29;20036;-73
2022/05/15 01:42:47;;;;;;;13.13;5.43;;;;;;;;;;4932169;29;20485;-74
2022/05/15 01:45:14;;;;;;;12.93;4.80;;;;;;;;;;4949803;28;20028;-74
2022/05/15 01:47:41;;;;;;;14.90;5.68;;;;;;;;;;4928857;29;20134;-73
2022/05/15 01:50:07;;;;;;;8.45;4.75;;;;;;;;;;4932029;29;20031;-74
2022/05/15 01:52:34;;;;;;;11.15;5.00;;;;;;;;;;4932943;29;20538;-74
2022/05/15 01:55:00;;;;;;;12.93;4.47;;;;;;;;;;4933202;29;20482;-74
2022/05/15 01:57:26;;;;;;;11.57;4.97;;;;;;;;;;4931224;29;20039;-73
2022/05/15 01:59:52;;;;;;;12.95;6.38;;;;;;;;;;4934991;29;20027;-73
2022/05/15 02:02:18;;;;;;;15.05;6.05;;;;;;;;;;4932260;29;20107;-73
2022/05/15 02:04:44;;;;;;;9.55;5.07;;;;;;;;;;4932669;29;20094;-73
2022/05/15 02:07:10;;;;;;;13.23;5.65;;;;;;;;;;4931299;29;20031;-73
2022/05/15 02:09:36;;;;;;;12.02;5.78;;;;;;;;;;4941259;28;20166;-73
2022/05/15 02:12:03;;;;;;;14.90;5.75;;;;;;;;;;4927870;29;20032;-73
2022/05/15 02:14:29;;;;;;;12.18;5.53;;;;;;;;;;4932014;29;20020;-73
2022/05/15 02:16:55;;;;;;;15.32;5.63;;;;;;;;;;4930753;29;20030;-73
2022/05/15 02:19:21;;;;;;;14.63;5.45;;;;;;;;;;4931163;29;20048;-74
2022/05/15 02:21:47;;;;;;;10.48;5.05;;;;;;;;;;4929100;29;20098;-73
2022/05/15 02:24:13;;;;;;;11.13;5.55;;;;;;;;;;4933107;29;20513;-73
2022/05/15 02:26:40;;;;;;;8.63;4.97;;;;;;;;;;4931866;29;20438;-73
2022/05/15 02:29:07;;;;;;;12.27;5.80;;;;;;;;;;4941997;28;20453;-73
2022/05/15 02:31:33;;;;;;;11.10;5.22;;;;;;;;;;4930504;29;20039;-73
2022/05/15 02:34:00;;;;;;;15.35;5.82;;;;;;;;;;4930721;29;20036;-74
2022/05/15 02:36:27;;;;;;;12.45;6.18;;;;;;;;;;4928155;29;20028;-74
2022/05/15 02:38:53;;;;;;;7.72;4.78;;;;;;;;;;4932718;29;20035;-74
2022/05/15 02:41:19;;;;;;;14.18;5.00;;;;;;;;;;4930259;29;20521;-73
2022/05/15 02:43:45;;;;;;;13.15;5.13;;;;;;;;;;4929803;29;20277;-72
2022/05/15 02:46:11;;;;;;;9.07;5.10;;;;;;;;;;4929499;29;20031;-72
2022/05/15 02:51:23;;;;;;;15.90;5.95;;;;;;;;;;4938970;29;20054;-73
2022/05/15 02:53:49;;;;;;;11.70;5.53;;;;;;;;;;4931545;29;20499;-74
2022/05/15 02:56:18;;;;;;;12.13;5.43;;;;;;;;;;4932400;29;20092;-73
2022/05/15 02:58:44;;;;;;;13.80;5.75;;;;;;;;;;4931007;29;20379;-73
2022/05/15 03:01:10;;;;;;;14.95;5.20;;;;;;;;;;4929803;29;20529;-72
2022/05/15 03:03:37;;;;;;;13.32;5.10;;;;;;;;;;4931912;29;20548;-72
2022/05/15 03:06:04;;;;;;;8.68;5.30;;;;;;;;;;4931484;29;20132;-73
2022/05/15 03:08:32;;;;;;;9.73;4.40;;;;;;;;;;4932326;29;20090;-74
2022/05/15 03:10:58;;;;;;;11.82;4.95;;;;;;;;;;4946616;29;20032;-73
2022/05/15 03:13:24;;;;;;;8.43;4.40;;;;;;;;;;4930567;29;20031;-74
2022/05/15 03:15:51;;;;;;;12.00;5.60;;;;;;;;;;4930706;29;20023;-73
2022/05/15 03:18:17;;;;;;;18.10;4.63;;;;;;;;;;4930874;29;20130;-73
2022/05/15 03:20:43;;;;;;;9.88;4.72;;;;;;;;;;4927218;29;20023;-73
2022/05/15 03:23:09;;;;;;;8.55;5.22;;;;;;;;;;4927948;29;20043;-73
2022/05/15 03:25:35;;;;;;;9.23;4.35;;;;;;;;;;4928845;29;20427;-74
2022/05/15 03:28:01;;;;;;;8.68;4.13;;;;;;;;;;4926650;29;20039;-74
2022/05/15 03:30:31;;;;;;;10.43;4.75;;;;;;;;;;4933070;29;20032;-74
2022/05/15 03:32:57;;;;;;;13.35;4.78;;;;;;;;;;4934136;29;20490;-73
2022/05/15 03:35:23;;;;;;;11.02;5.13;;;;;;;;;;4928020;29;20040;-74
2022/05/15 03:37:49;;;;;;;10.13;4.78;;;;;;;;;;4927662;29;20090;-73
2022/05/15 03:40:15;;;;;;;12.05;4.75;;;;;;;;;;4929334;29;20024;-74
2022/05/15 03:42:42;;;;;;;14.55;4.38;;;;;;;;;;4927034;29;20576;-73
2022/05/15 03:45:08;;;;;;;11.45;4.78;;;;;;;;;;4925957;29;20545;-75
2022/05/15 03:47:35;;;;;;;10.85;4.40;;;;;;;;;;4933380;29;20042;-74
2022/05/15 03:50:07;;;;;;;14.13;4.93;;;;;;;;;;4928784;29;20032;-73
2022/05/15 03:52:34;;;;;;;10.18;4.60;;;;;;;;;;4932791;29;20027;-74
2022/05/15 03:55:00;;;;;;;9.35;5.80;;;;;;;;;;4930780;29;20055;-73
2022/05/15 03:57:26;;;;;;;11.10;4.82;;;;;;;;;;4933580;29;20039;-74
2022/05/15 03:59:53;;;;;;;14.40;7.00;;;;;;;;;;4941392;28;20364;-73
2022/05/15 04:02:19;;;;;;;10.75;6.82;;;;;;;;;;4928988;29;20024;-74
2022/05/15 04:04:45;;;;;;;16.77;7.55;;;;;;;;;;4949238;28;20028;-73
2022/05/15 04:07:11;;;;;;;8.85;6.13;;;;;;;;;;4932537;29;20063;-75
2022/05/15 04:09:40;;;;;;;19.02;5.60;;;;;;;;;;4938467;29;20032;-74
2022/05/15 04:12:07;;;;;;;7.28;4.95;;;;;;;;;;4932367;29;20414;-75
2022/05/15 04:14:33;;;;;;;9.40;5.05;;;;;;;;;;4930451;29;20055;-73
2022/05/15 04:17:00;;;;;;;8.75;5.38;;;;;;;;;;4932878;29;20032;-73
2022/05/15 04:19:26;;;;;;;11.35;5.43;;;;;;;;;;4931057;29;20114;-73
2022/05/15 04:21:52;;;;;;;8.68;4.88;;;;;;;;;;4930027;29;20095;-73
2022/05/15 04:24:19;;;;;;;13.02;6.15;;;;;;;;;;4930042;29;20024;-73
2022/05/15 04:26:49;;;;;;;14.02;6.60;;;;;;;;;;4931583;29;20038;-73
2022/05/15 04:29:15;;;;;;;10.82;6.13;;;;;;;;;;4927545;29;20032;-74
2022/05/15 04:31:41;;;;;;;13.27;5.93;;;;;;;;;;4931103;29;20040;-74
2022/05/15 04:34:07;;;;;;;16.30;5.78;;;;;;;;;;4933456;29;20054;-74
2022/05/15 04:36:34;;;;;;;10.85;6.13;;;;;;;;;;4931811;29;20028;-73
2022/05/15 04:39:01;;;;;;;12.05;6.00;;;;;;;;;;4931513;29;21773;-73
2022/05/15 04:41:28;;;;;;;10.05;5.00;;;;;;;;;;4935606;29;20110;-73
2022/05/15 04:43:54;;;;;;;12.88;6.25;;;;;;;;;;4934452;29;20055;-72
2022/05/15 04:46:22;;;;;;;13.32;6.28;;;;;;;;;;4933402;29;20066;-73
2022/05/15 04:48:48;;;;;;;11.68;5.43;;;;;;;;;;4930114;29;20083;-73
2022/05/15 04:51:14;;;;;;;12.57;5.65;;;;;;;;;;4932613;29;20036;-73
2022/05/15 04:53:40;;;;;;;9.48;5.22;;;;;;;;;;4926752;29;20036;-72
2022/05/15 04:56:06;;;;;;;11.15;5.40;;;;;;;;;;4931901;29;20581;-73
2022/05/15 04:58:32;;;;;;;10.65;5.50;;;;;;;;;;4928294;29;20039;-73
2022/05/15 05:00:58;;;;;;;9.85;5.45;;;;;;;;;;4930635;29;20104;-73
2022/05/15 05:03:24;;;;;;;13.05;5.38;;;;;;;;;;4929202;29;20063;-74
2022/05/15 05:05:50;;;;;;;12.07;5.50;;;;;;;;;;4939177;28;20091;-73
2022/05/15 05:08:17;;;;;;;11.95;6.25;;;;;;;;;;4934282;29;20039;-73
2022/05/15 05:10:43;;;;;;;12.98;6.50;;;;;;;;;;4932217;29;20445;-73
2022/05/15 05:13:09;;;;;;;12.07;6.70;;;;;;;;;;4931915;29;20028;-74
2022/05/15 05:15:35;;;;;;;15.57;6.20;;;;;;;;;;4934667;29;20031;-74
2022/05/15 05:18:01;;;;;;;12.45;5.75;;;;;;;;;;4932382;29;20024;-74
2022/05/15 05:20:27;;;;;;;15.15;7.72;;;;;;;;;;4935537;29;20032;-74
2022/05/15 05:22:53;;;;;;;15.15;7.05;;;;;;;;;;4930866;29;20028;-73
2022/05/15 05:25:19;;;;;;;20.10;7.38;;;;;;;;;;4930274;29;20054;-73
2022/05/15 05:27:45;;;;;;;22.30;7.88;;;;;;;;;;4931945;29;20050;-73
2022/05/15 05:30:14;;;;;;;16.98;7.18;;;;;;;;;;4930626;29;20070;-73
2022/05/15 05:32:40;;;;;;;12.07;7.00;;;;;;;;;;4930153;29;20027;-73
2022/05/15 05:35:07;;;;;;;16.73;7.43;;;;;;;;;;4927521;29;20042;-73
2022/05/15 05:37:33;;;;;;;13.32;6.72;;;;;;;;;;4928544;29;20114;-74
2022/05/15 05:39:59;;;;;;;17.45;7.63;;;;;;;;;;4929609;29;20032;-73
2022/05/15 05:42:25;;;;;;;17.92;7.70;;;;;;;;;;4928135;29;20470;-73
2022/05/15 05:44:51;;;;;;;17.63;8.20;;;;;;;;;;4924383;29;20023;-74
2022/05/15 05:47:24;;;;;;;14.45;7.00;;;;;;;;;;4929262;29;20108;-73
2022/05/15 05:49:50;;;;;;;17.35;7.60;;;;;;;;;;4926895;29;20091;-73
2022/05/15 05:52:16;;;;;;;15.18;7.75;;;;;;;;;;4930866;29;20398;-73
2022/05/15 05:54:42;;;;;;;14.13;7.25;;;;;;;;;;4928088;29;20060;-74
2022/05/15 05:57:08;;;;;;;12.85;7.63;;;;;;;;;;4930027;29;20034;-73
2022/05/15 05:59:34;;;;;;;15.10;7.22;;;;;;;;;;4928534;29;20020;-73
2022/05/15 06:02:00;;;;;;;12.80;7.32;;;;;;;;;;4941203;28;20455;-74
2022/05/15 06:04:44;;;;;;;14.38;6.85;;;;;;;;;;4928436;29;20079;-73
2022/05/15 06:07:12;;;;;;;12.52;7.43;;;;;;;;;;4953928;28;20481;-73
2022/05/15 06:09:39;;;;;;;16.08;7.40;;;;;;;;;;4933509;29;20032;-72
2022/05/15 06:12:05;;;;;;;15.75;6.97;;;;;;;;;;4933911;29;20042;-74
2022/05/15 06:14:32;;;;;;;10.98;6.80;;;;;;;;;;4932992;29;20032;-73
2022/05/15 06:16:58;;;;;;;14.45;6.32;;;;;;;;;;4933681;29;20429;-72
2022/05/15 06:19:24;;;;;;;12.48;6.40;;;;;;;;;;4938237;29;20063;-73
2022/05/15 06:21:50;;;;;;;16.10;7.35;;;;;;;;;;4931372;29;20046;-73
2022/05/15 06:24:16;;;;;;;15.15;6.45;;;;;;;;;;4931992;29;20476;-75
2022/05/15 06:26:42;;;;;;;12.15;6.45;;;;;;;;;;4929186;29;20032;-73
2022/05/15 06:29:08;;;;;;;18.23;7.53;;;;;;;;;;4931504;29;20027;-74
2022/05/15 06:31:35;;;;;;;20.48;6.57;;;;;;;;;;4932358;29;20330;-73
2022/05/15 06:34:01;;;;;;;19.88;6.93;;;;;;;;;;4937535;29;20344;-74
2022/05/15 06:36:27;;;;;;;13.38;6.93;;;;;;;;;;4930149;29;20537;-74
2022/05/15 06:38:53;;;;;;;13.68;8.05;;;;;;;;;;4930029;29;20036;-72
2022/05/15 06:41:19;;;;;;;11.43;7.60;;;;;;;;;;4931104;29;20027;-74
2022/05/15 06:43:46;;;;;;;16.55;7.22;;;;;;;;;;4933311;29;20635;-73
2022/05/15 06:46:12;;;;;;;16.38;6.57;;;;;;;;;;4928560;29;20036;-73
2022/05/15 06:48:39;;;;;;;19.55;6.65;;;;;;;;;;4931919;29;20043;-72
2022/05/15 06:51:05;;;;;;;17.05;6.28;;;;;;;;;;4936850;29;20027;-73
2022/05/15 06:53:31;;;;;;;16.90;6.88;;;;;;;;;;4933617;29;20067;-75
2022/05/15 06:58:42;;;;;;;14.43;6.30;;;;;;;;;;4928099;29;20123;-73
2022/05/15 07:01:09;;;;;;;15.32;6.75;;;;;;;;;;4934314;29;20090;-74
2022/05/15 07:03:35;;;;;;;20.30;7.30;;;;;;;;;;4935703;29;20056;-73
2022/05/15 07:06:01;;;;;;;10.32;6.00;;;;;;;;;;4931142;29;20106;-73
2022/05/15 07:08:27;;;;;;;12.05;6.78;;;;;;;;;;4932178;29;20036;-73
2022/05/15 07:10:53;;;;;;;17.20;6.70;;;;;;;;;;4930266;29;20102;-74
2022/05/15 07:13:20;;;;;;;12.30;7.30;;;;;;;;;;4931454;29;21170;-73
2022/05/15 07:15:46;;;;;;;8.68;6.05;;;;;;;;;;4930346;29;20042;-74
2022/05/15 07:18:12;;;;;;;16.70;6.43;;;;;;;;;;4930876;29;20063;-74
2022/05/15 07:20:38;;;;;;;19.35;6.93;;;;;;;;;;4945487;28;20027;-74
2022/05/15 07:23:05;;;;;;;12.40;6.53;;;;;;;;;;4926315;29;20030;-73
2022/05/15 07:25:31;;;;;;;9.98;5.60;;;;;;;;;;4931907;29;20031;-74
2022/05/15 07:27:57;;;;;;;14.52;5.43;;;;;;;;;;4930617;29;20032;-73
2022/05/15 07:30:23;;;;;;;15.32;6.72;;;;;;;;;;4926532;29;20502;-74
2022/05/15 07:32:49;;;;;;;10.10;5.40;;;;;;;;;;4930149;29;20056;-73
2022/05/15 07:35:16;;;;;;;15.00;5.68;;;;;;;;;;4931215;29;20024;-73
2022/05/15 07:37:43;;;;;;;12.07;5.57;;;;;;;;;;4931237;29;20042;-73
2022/05/15 07:40:09;;;;;;;13.65;5.65;;;;;;;;;;4927720;29;20035;-73
2022/05/15 07:42:36;;;;;;;17.50;5.85;;;;;;;;;;4930622;29;20028;-74
2022/05/15 07:45:03;;;;;;;15.82;6.22;;;;;;;;;;4931894;29;20052;-73
2022/05/15 07:47:29;;;;;;;15.77;7.00;;;;;;;;;;4933894;29;20547;-73
2022/05/15 07:49:56;;;;;;;17.38;5.47;;;;;;;;;;4929570;29;20401;-73
2022/05/15 07:52:22;;;;;;;12.15;5.50;;;;;;;;;;4928268;29;20134;-74
2022/05/15 07:54:49;;;;;;;16.90;5.43;;;;;;;;;;4928252;29;20047;-74
2022/05/15 07:57:15;;;;;;;12.13;5.55;;;;;;;;;;4927176;29;20023;-73
2022/05/15 07:59:42;;;;;;;16.15;6.45;;;;;;;;;;4926378;29;20035;-74
2022/05/15 08:02:08;;;;;;;14.73;5.13;;;;;;;;;;4929858;29;20028;-74
2022/05/15 08:08:00;;;;;;;12.75;5.75;;;;;;;;;;4927654;29;20493;-73
2022/05/15 08:10:05;;;;;;;14.90;5.53;;;;;;;;;;4928957;29;20074;-73
2022/05/15 08:12:31;;;;;;;15.10;5.75;;;;;;;;;;4933707;29;20034;-73
2022/05/15 08:14:58;;;;;;;14.90;5.40;;;;;;;;;;4931529;29;20342;-74
2022/05/15 08:17:24;;;;;;;17.08;6.07;;;;;;;;;;4930819;29;20099;-73
2022/05/15 08:25:20;;;;;;;11.27;5.55;;;;;;;;;;4930318;29;20107;-73
2022/05/15 08:27:46;;;;;;;12.90;5.68;;;;;;;;;;4926729;29;20040;-74
2022/05/15 08:30:13;;;;;;;21.83;5.63;;;;;;;;;;4928947;29;20044;-74
2022/05/15 08:32:39;;;;;;;17.60;5.50;;;;;;;;;;4931112;29;20063;-73
2022/05/15 08:35:05;;;;;;;17.58;6.03;;;;;;;;;;4930020;29;20039;-73
2022/05/15 08:37:32;;;;;;;12.98;5.00;;;;;;;;;;4928192;29;20098;-74
2022/05/15 08:39:58;;;;;;;11.15;6.72;;;;;;;;;;4928157;29;20028;-73
2022/05/15 08:42:32;;;;;;;11.90;5.38;;;;;;;;;;4932143;29;20036;-73
2022/05/15 08:45:01;;;;;;;18.00;6.35;;;;;;;;;;4931261;29;20036;-75
2022/05/15 08:47:40;;;;;;;18.73;6.65;;;;;;;;;;4931748;29;20485;-74
2022/05/15 08:50:11;;;;;;;20.83;7.60;;;;;;;;;;4931215;29;20043;-73
2022/05/15 08:52:42;;;;;;;17.42;7.65;;;;;;;;;;4926834;29;20116;-74
2022/05/15 08:55:15;;;;;;;18.30;6.03;;;;;;;;;;4924676;29;20043;-73
2022/05/15 08:58:00;;;;;;;15.73;5.93;;;;;;;;;;4944748;28;20486;-73
2022/05/15 09:00:31;;;;;;;15.25;6.13;;;;;;;;;;4933232;29;20490;-75
2022/05/15 09:03:04;;;;;;;10.30;5.78;;;;;;;;;;4928639;29;20035;-74
2022/05/15 09:05:31;;;;;;;21.67;5.88;;;;;;;;;;4933271;29;20355;-74
2022/05/15 09:08:15;;;;;;;17.05;7.70;;;;;;;;;;4931924;29;20036;-72
2022/05/15 09:10:58;;;;;;;17.58;5.95;;;;;;;;;;4929547;29;20266;-74
2022/05/15 09:13:47;;;;;;;17.25;6.07;;;;;;;;;;4929817;29;20035;-73
2022/05/15 09:16:16;;;;;;;15.75;5.70;;;;;;;;;;4920335;29;20059;-74
2022/05/15 09:18:42;;;;;;;15.35;5.55;;;;;;;;;;4927619;29;20516;-73
2022/05/15 09:21:10;;;;;;;13.77;4.72;;;;;;;;;;4924828;29;20136;-74
2022/05/15 09:23:41;;;;;;;13.02;4.68;;;;;;;;;;4927238;29;20055;-73
2022/05/15 09:26:20;;;;;;;13.30;5.13;;;;;;;;;;4925646;29;20023;-73
2022/05/15 09:28:54;;;;;;;13.23;5.43;;;;;;;;;;4926229;29;20493;-73
2022/05/15 09:31:20;;;;;;;13.73;5.57;;;;;;;;;;4927506;29;20043;-73
2022/05/15 09:33:52;;;;;;;16.02;5.15;;;;;;;;;;4925362;29;20040;-74
2022/05/15 09:36:40;;;;;;;13.68;5.85;;;;;;;;;;4922726;29;20036;-76
2022/05/15 09:39:09;;;;;;;12.63;4.40;;;;;;;;;;4934539;29;20036;-74
2022/05/15 09:44:27;;;;;;;15.10;5.75;;;;;;;;;;4935489;29;20085;-74
2022/05/15 09:46:57;;;;;;;10.98;4.45;;;;;;;;;;4930364;29;20023;-74
2022/05/15 09:49:26;;;;;;;13.63;4.68;;;;;;;;;;4931381;29;20038;-74
2022/05/15 09:51:53;;;;;;;9.07;4.50;;;;;;;;;;4928524;29;20039;-73
2022/05/15 09:54:46;;;;;;;10.43;4.35;;;;;;;;;;4929673;29;20056;-74
2022/05/15 09:57:12;;;;;;;14.50;5.47;;;;;;;;;;4929079;29;20043;-73
2022/05/15 09:59:39;;;;;;;12.10;3.92;;;;;;;;;;4928669;29;20048;-73
2022/05/15 10:02:05;;;;;;;8.38;4.32;;;;;;;;;;4929770;29;20035;-74
2022/05/15 10:04:33;;;;;;;11.77;4.20;;;;;;;;;;4931654;29;20114;-74
2022/05/15 10:07:04;;;;;;;11.85;4.15;;;;;;;;;;4930793;29;20032;-74
2022/05/15 10:09:35;;;;;;;11.68;4.70;;;;;;;;;;4929158;29;20127;-74
2022/05/15 10:12:11;;;;;;;17.20;4.38;;;;;;;;;;4931333;29;20385;-74
2022/05/15 10:14:42;;;;;;;11.35;4.55;;;;;;;;;;4935362;29;20493;-74
2022/05/15 10:17:09;;;;;;;12.60;4.10;;;;;;;;;;4926455;29;20319;-74
2022/05/15 10:19:35;;;;;;;11.95;4.78;;;;;;;;;;4930800;29;20114;-74
2022/05/15 10:22:11;;;;;;;9.90;4.13;;;;;;;;;;4930319;29;20035;-74
2022/05/15 10:24:40;;;;;;;11.93;5.70;;;;;;;;;;4928846;29;20450;-75
2022/05/15 10:27:07;;;;;;;12.07;4.97;;;;;;;;;;4930050;29;20668;-74
2022/05/15 10:29:38;;;;;;;9.82;5.07;;;;;;;;;;4927570;29;20035;-74
2022/05/15 10:32:23;;;;;;;12.85;4.40;;;;;;;;;;4929385;29;20028;-75
2022/05/15 10:34:49;;;;;;;14.75;4.78;;;;;;;;;;4932662;29;20063;-74
2022/05/15 10:37:19;;;;;;;14.00;4.80;;;;;;;;;;4933454;29;20102;-73
2022/05/15 10:39:46;;;;;;;12.02;5.15;;;;;;;;;;4929130;29;20027;-74
2022/05/15 10:42:30;;;;;;;9.95;3.97;;;;;;;;;;4931516;29;20072;-74
2022/05/15 10:45:12;;;;;;;15.73;4.85;;;;;;;;;;4932977;29;20024;-73
2022/05/15 10:47:53;;;;;;;10.95;4.03;;;;;;;;;;4930098;29;20055;-73
2022/05/15 10:50:31;;;;;;;11.32;4.22;;;;;;;;;;4919241;29;20035;-75
2022/05/15 10:59:10;;;;;;;10.73;4.47;;;;;;;;;;4932843;29;20069;-74
2022/05/15 11:01:39;;;;;;;12.95;4.40;;;;;;;;;;4934520;29;20031;-74
2022/05/15 11:04:15;;;;;;;13.85;4.65;;;;;;;;;;4933908;29;20019;-73
2022/05/15 11:06:50;;;;;;;9.82;4.10;;;;;;;;;;4929161;29;20108;-76
2022/05/15 11:09:19;;;;;;;13.43;5.13;;;;;;;;;;4934806;29;20047;-74
2022/05/15 11:12:00;;;;;;;14.73;4.55;;;;;;;;;;4924752;29;20043;-75
2022/05/15 11:14:26;;;;;;;10.07;4.30;;;;;;;;;;4927247;29;20039;-75
2022/05/15 11:17:05;;;;;;;13.13;5.22;;;;;;;;;;4923813;29;20135;-76
2022/05/15 11:19:38;;;;;;;11.02;4.85;;;;;;;;;;4926380;29;20066;-75
2022/05/15 11:22:44;;;;;;;11.23;4.20;;;;;;;;;;4924783;29;20032;-76
2022/05/15 11:25:28;;;;;;;10.82;3.90;;;;;;;;;;4881489;29;20032;-77
2022/05/15 11:27:55;;;;;;;15.48;4.38;;;;;;;;;;4887224;29;20032;-76
2022/05/15 11:30:29;;;;;;;9.30;4.80;;;;;;;;;;4907072;29;20186;-77
2022/05/15 11:32:55;;;;;;;10.38;4.35;;;;;;;;;;4922632;29;20098;-75
2022/05/15 11:35:21;;;;;;;14.18;4.05;;;;;;;;;;4925189;29;20063;-75
2022/05/15 11:37:56;;;;;;;11.77;4.07;;;;;;;;;;4924906;29;20028;-76
2022/05/15 11:40:40;;;;;;;9.48;3.75;;;;;;;;;;4926546;29;20043;-75
2022/05/15 11:43:29;;;;;;;9.35;4.05;;;;;;;;;;4925911;29;20031;-77
2022/05/15 11:45:59;;;;;;;16.38;5.88;;;;;;;;;;4921855;29;20035;-76
2022/05/15 11:48:34;;;;;;;13.70;4.70;;;;;;;;;;4927254;29;20584;-76
2022/05/15 11:51:22;;;;;;;12.77;4.90;;;;;;;;;;4929861;29;20031;-76
2022/05/15 11:53:50;;;;;;;12.07;4.50;;;;;;;;;;4926573;29;20564;-75
2022/05/15 11:56:21;;;;;;;13.23;4.38;;;;;;;;;;4935093;28;20042;-76
2022/05/15 11:58:53;;;;;;;12.00;5.20;;;;;;;;;;4924798;29;20394;-76
2022/05/15 12:01:25;;;;;;;12.95;5.28;;;;;;;;;;4926749;29;20032;-76
2022/05/15 12:03:53;;;;;;;17.75;6.75;;;;;;;;;;4926274;29;20078;-76
2022/05/15 12:06:23;;;;;;;10.75;5.13;;;;;;;;;;4926002;29;21231;-76
2022/05/15 12:08:51;;;;;;;15.45;5.57;;;;;;;;;;4927093;29;20039;-76
2022/05/15 12:11:31;;;;;;;13.27;4.38;;;;;;;;;;4925953;29;20348;-76
2022/05/15 12:14:00;;;;;;;10.60;4.38;;;;;;;;;;4923172;29;20234;-77
2022/05/15 12:16:26;;;;;;;9.45;3.90;;;;;;;;;;4926150;29;20063;-77
2022/05/15 12:18:55;;;;;;;12.65;4.15;;;;;;;;;;4924001;29;20422;-76
2022/05/15 12:21:23;;;;;;;9.93;4.25;;;;;;;;;;4925104;29;20079;-76
2022/05/15 12:26:34;;;;;;;14.70;4.10;;;;;;;;;;4922556;29;20066;-76
2022/05/15 12:29:01;;;;;;;11.90;5.57;;;;;;;;;;4928676;29;20379;-75
2022/05/15 12:31:31;;;;;;;9.02;4.38;;;;;;;;;;4926331;29;20107;-76
2022/05/15 12:34:08;;;;;;;8.85;4.22;;;;;;;;;;4927302;29;20111;-77
2022/05/15 12:36:40;;;;;;;12.85;4.15;;;;;;;;;;4928202;29;20027;-76
2022/05/15 12:39:07;;;;;;;9.30;3.97;;;;;;;;;;4927386;29;20035;-76
2022/05/15 12:41:42;;;;;;;12.63;3.65;;;;;;;;;;4922870;29;20055;-75
2022/05/15 12:44:08;;;;;;;;;;;;;;;;;;4925663;29;20038;-76
2022/05/15 12:46:36;;;;;;;5.97;4.55;;;;;;;;;;4923958;29;19911;-75
2022/05/15 12:49:03;;;;;;;7.10;3.85;;;;;;;;;;4921120;29;20043;-76
2022/05/15 12:51:31;;;;;;;9.85;4.97;;;;;;;;;;4925021;29;20054;-75
2022/05/15 12:53:58;;;;;;;7.35;3.22;;;;;;;;;;4920249;29;20051;-74
2022/05/15 12:56:30;;;;;;;9.20;4.22;;;;;;;;;;4924078;29;20039;-75
2022/05/15 12:59:00;;;;;;;12.07;4.90;;;;;;;;;;4926014;29;20533;-75
2022/05/15 13:01:31;;;;;;;12.18;4.18;;;;;;;;;;4923928;29;20035;-75
2022/05/15 13:03:59;;;;;;;8.73;3.88;;;;;;;;;;4926962;29;20031;-75
2022/05/15 13:06:30;;;;;;;11.95;4.72;;;;;;;;;;4924984;29;20569;-75
2022/05/15 13:08:58;;;;;;;9.00;3.70;;;;;;;;;;4940720;29;20439;-74
2022/05/15 13:11:47;;;;;;;6.72;3.70;;;;;;;;;;4924439;29;20039;-76
2022/05/15 13:14:20;;;;;;;8.23;4.63;;;;;;;;;;4918345;29;20044;-75
2022/05/15 13:16:47;;;;;;;9.98;4.35;;;;;;;;;;4944184;29;20036;-77
2022/05/15 13:19:14;;;;;;;8.93;4.53;;;;;;;;;;4928959;29;20134;-76
2022/05/15 13:21:42;;;;;;;9.90;4.00;;;;;;;;;;4924835;29;20035;-75
2022/05/15 13:24:10;;;;;;;7.63;4.65;;;;;;;;;;4926417;29;20276;-75
2022/05/15 13:26:41;;;;;;;8.68;3.88;;;;;;;;;;4928047;29;20034;-75
2022/05/15 13:29:09;;;;;;;5.88;3.67;;;;;;;;;;4925993;29;20099;-75
2022/05/15 13:31:36;;;;;;;9.77;3.90;;;;;;;;;;4927273;29;20501;-75
2022/05/15 13:34:03;;;;;;;9.40;4.15;;;;;;;;;;4945592;29;20196;-76
2022/05/15 13:36:29;;;;;;;10.98;4.00;;;;;;;;;;4925070;29;20118;-75
2022/05/15 13:44:29;;;;;;;9.30;5.03;;;;;;;;;;4928556;29;20047;-76
2022/05/15 13:47:03;;;;;;;11.38;4.03;;;;;;;;;;4926896;29;20078;-75
2022/05/15 13:49:45;;;;;;;11.80;5.00;;;;;;;;;;4930467;29;20437;-74
2022/05/15 13:52:21;;;;;;;8.20;3.88;;;;;;;;;;4926814;29;20283;-75
2022/05/15 13:54:47;;;;;;;9.13;4.00;;;;;;;;;;4926431;29;20052;-75
2022/05/15 13:57:14;;;;;;;9.38;4.30;;;;;;;;;;4932387;29;20032;-76
2022/05/15 13:59:42;;;;;;;7.47;4.80;;;;;;;;;;4932826;29;20525;-75
2022/05/15 14:02:19;;;;;;;8.23;4.00;;;;;;;;;;4930390;29;20024;-75
2022/05/15 14:04:47;;;;;;;6.22;4.10;;;;;;;;;;4945226;29;20028;-76
2022/05/15 14:07:25;;;;;;;13.95;5.28;;;;;;;;;;4931687;29;20138;-76
2022/05/15 14:09:52;;;;;;;8.40;4.07;;;;;;;;;;4926631;29;20032;-75
2022/05/15 14:12:19;;;;;;;7.88;4.00;;;;;;;;;;4942147;28;20929;-76
2022/05/15 14:14:48;;;;;;;8.02;4.55;;;;;;;;;;4929725;29;20074;-75
2022/05/15 14:17:15;;;;;;;14.52;5.10;;;;;;;;;;4928508;29;20059;-75
2022/05/15 14:19:49;;;;;;;8.95;3.88;;;;;;;;;;4929658;29;20536;-75
2022/05/15 14:22:15;;;;;;;7.47;4.63;;;;;;;;;;4931086;29;20359;-75
2022/05/15 14:24:41;;;;;;;8.95;4.75;;;;;;;;;;4932472;29;20038;-75
2022/05/15 14:27:07;;;;;;;9.60;3.78;;;;;;;;;;4931676;29;20393;-75
2022/05/15 14:29:33;;;;;;;11.30;4.68;;;;;;;;;;4933415;29;20099;-74
2022/05/15 14:32:03;;;;;;;8.50;3.78;;;;;;;;;;4931138;29;20032;-75
2022/05/15 14:34:29;;;;;;;9.35;4.22;;;;;;;;;;4929068;29;20458;-75
2022/05/15 14:36:55;;;;;;;8.82;4.13;;;;;;;;;;4931249;29;20035;-76
2022/05/15 14:39:22;;;;;;;9.60;5.05;;;;;;;;;;4930478;29;20616;-75
2022/05/15 14:41:48;;;;;;;8.18;4.13;;;;;;;;;;4931288;29;20032;-75
2022/05/15 14:44:14;;;;;;;10.45;5.00;;;;;;;;;;4929672;29;20546;-74
2022/05/15 14:46:42;;;;;;;10.38;4.65;;;;;;;;;;4928181;29;20054;-75
2022/05/15 14:49:10;;;;;;;9.70;4.90;;;;;;;;;;4928200;29;20542;-75
2022/05/15 14:51:38;;;;;;;9.23;4.35;;;;;;;;;;4928199;29;20046;-75
2022/05/15 14:54:05;;;;;;;7.50;3.75;;;;;;;;;;4929256;29;20074;-75
2022/05/15 14:56:33;;;;;;;8.55;4.45;;;;;;;;;;4942838;28;20031;-75
2022/05/15 14:59:00;;;;;;;9.55;3.88;;;;;;;;;;4943934;29;20102;-75
2022/05/15 15:01:28;;;;;;;9.43;4.38;;;;;;;;;;4930301;29;20569;-75
2022/05/15 15:03:54;;;;;;;9.05;4.43;;;;;;;;;;4930963;29;20115;-75
2022/05/15 15:06:20;;;;;;;9.52;4.13;;;;;;;;;;4926830;29;20538;-76
2022/05/15 15:08:47;;;;;;;8.60;3.92;;;;;;;;;;4926864;29;20172;-76
2022/05/15 15:11:13;;;;;;;8.95;4.22;;;;;;;;;;4925689;29;20027;-76
2022/05/15 15:13:39;;;;;;;9.57;4.70;;;;;;;;;;4925976;29;20071;-74